Time;durP1;ratioP1;P1;durP2;ratioP2;P2;SDS_P1;SDS_P2;PMS_P1;PMS_P2;Temp;Humidity;BMP_temperature;BMP_pressure;BME280_temperature;BME280_humidity;BME280_pressure;Samples;Min_cycle;Max_cycle;Signal;HPM_P1;HPM_P2
2023/12/15 00:00:02;;;;;;;38.47;33.17;;;;;;;;;;5005218;28;20211;-83
2023/12/15 00:02:29;;;;;;;35.85;31.95;;;;;;;;;;5018569;28;20480;-84
2023/12/15 00:04:56;;;;;;;35.53;31.70;;;;;;;;;;5021138;28;20210;-83
2023/12/15 00:07:23;;;;;;;34.47;30.88;;;;;;;;;;5021076;28;20225;-82
2023/12/15 00:09:52;;;;;;;33.42;29.88;;;;;;;;;;5019037;28;20744;-82
2023/12/15 00:12:19;;;;;;;37.30;32.57;;;;;;;;;;5005139;28;20206;-82
2023/12/15 00:14:46;;;;;;;39.38;34.10;;;;;;;;;;4999354;28;20441;-83
2023/12/15 00:17:13;;;;;;;35.10;31.30;;;;;;;;;;4999164;28;20305;-84
2023/12/15 00:19:40;;;;;;;34.28;30.52;;;;;;;;;;5009239;28;20669;-84
2023/12/15 00:22:08;;;;;;;42.08;31.67;;;;;;;;;;5017754;28;21059;-84
2023/12/15 00:24:35;;;;;;;41.28;31.92;;;;;;;;;;5002474;28;20218;-84
2023/12/15 00:27:04;;;;;;;38.37;32.20;;;;;;;;;;4999594;28;20690;-84
2023/12/15 00:29:31;;;;;;;38.13;31.55;;;;;;;;;;4999713;28;20449;-84
2023/12/15 00:31:58;;;;;;;40.80;34.38;;;;;;;;;;5015771;28;20205;-85
2023/12/15 00:34:26;;;;;;;36.33;32.42;;;;;;;;;;5019817;28;20252;-82
2023/12/15 00:36:53;;;;;;;39.33;33.23;;;;;;;;;;5013957;28;20228;-82
2023/12/15 00:39:20;;;;;;;40.60;33.40;;;;;;;;;;5019488;28;20514;-84
2023/12/15 00:41:47;;;;;;;34.53;30.80;;;;;;;;;;5018429;28;20213;-83
2023/12/15 00:44:15;;;;;;;35.85;32.05;;;;;;;;;;5019252;28;20775;-85
2023/12/15 00:46:42;;;;;;;47.00;37.40;;;;;;;;;;5019139;28;20252;-84
2023/12/15 00:49:09;;;;;;;37.13;33.13;;;;;;;;;;5007572;28;20222;-84
2023/12/15 00:51:36;;;;;;;42.08;35.60;;;;;;;;;;5005756;28;20241;-84
2023/12/15 00:54:03;;;;;;;39.17;35.00;;;;;;;;;;5000363;28;20202;-82
2023/12/15 00:56:30;;;;;;;40.88;34.63;;;;;;;;;;5000516;28;20568;-83
2023/12/15 00:58:57;;;;;;;35.50;31.67;;;;;;;;;;4999975;28;20716;-82
2023/12/15 01:01:25;;;;;;;38.00;33.95;;;;;;;;;;4999197;28;20215;-83
2023/12/15 01:03:52;;;;;;;38.92;31.50;;;;;;;;;;4999883;28;20270;-83
2023/12/15 01:06:19;;;;;;;41.33;32.47;;;;;;;;;;5001826;28;20230;-84
2023/12/15 01:08:46;;;;;;;36.42;31.67;;;;;;;;;;5018404;28;20213;-83
2023/12/15 01:11:13;;;;;;;39.10;34.08;;;;;;;;;;5021805;28;20197;-83
2023/12/15 01:13:40;;;;;;;38.50;33.22;;;;;;;;;;5023139;28;20256;-84
2023/12/15 01:16:08;;;;;;;38.90;34.38;;;;;;;;;;5022322;28;20277;-82
2023/12/15 01:18:36;;;;;;;40.03;33.70;;;;;;;;;;5022810;28;20221;-84
2023/12/15 01:21:03;;;;;;;38.83;34.15;;;;;;;;;;5022536;28;20244;-83
2023/12/15 01:23:30;;;;;;;40.63;34.38;;;;;;;;;;5022140;28;20221;-84
2023/12/15 01:25:57;;;;;;;43.63;35.55;;;;;;;;;;5021899;28;20234;-84
2023/12/15 01:28:24;;;;;;;40.53;34.22;;;;;;;;;;5021854;28;20205;-83
2023/12/15 01:30:51;;;;;;;34.75;30.80;;;;;;;;;;5021418;28;20205;-84
2023/12/15 01:33:18;;;;;;;36.43;32.17;;;;;;;;;;5022573;28;20654;-85
2023/12/15 01:35:47;;;;;;;36.78;32.80;;;;;;;;;;5020901;28;20435;-83
2023/12/15 01:38:14;;;;;;;48.63;33.77;;;;;;;;;;5021429;28;20202;-84
2023/12/15 01:40:41;;;;;;;40.15;34.13;;;;;;;;;;5009536;28;20461;-83
2023/12/15 01:43:08;;;;;;;43.42;33.17;;;;;;;;;;5002539;28;20716;-85
2023/12/15 01:45:35;;;;;;;34.28;30.58;;;;;;;;;;5002840;28;20218;-84
2023/12/15 01:48:02;;;;;;;44.47;33.80;;;;;;;;;;5001845;28;20260;-84
2023/12/15 01:50:29;;;;;;;42.90;34.35;;;;;;;;;;5001788;28;20202;-84
2023/12/15 01:52:57;;;;;;;43.75;34.63;;;;;;;;;;5003052;28;20265;-82
2023/12/15 01:55:25;;;;;;;47.05;33.38;;;;;;;;;;5002338;28;20237;-83
2023/12/15 01:57:52;;;;;;;43.97;34.65;;;;;;;;;;5002321;28;20238;-82
2023/12/15 02:00:18;;;;;;;39.55;33.78;;;;;;;;;;5003110;28;20233;-81
2023/12/15 02:02:45;;;;;;;39.30;31.35;;;;;;;;;;5002197;28;20210;-84
2023/12/15 02:05:12;;;;;;;43.22;33.95;;;;;;;;;;5002373;28;20198;-84
2023/12/15 02:07:40;;;;;;;41.05;35.72;;;;;;;;;;5002169;28;20261;-84
2023/12/15 02:10:08;;;;;;;45.20;35.58;;;;;;;;;;5015969;28;20268;-83
2023/12/15 02:12:35;;;;;;;39.38;34.75;;;;;;;;;;5021023;28;20206;-84
2023/12/15 02:15:03;;;;;;;39.38;32.42;;;;;;;;;;5007439;28;20253;-83
2023/12/15 02:17:29;;;;;;;36.53;32.53;;;;;;;;;;5004289;28;20277;-84
2023/12/15 02:19:56;;;;;;;45.45;34.08;;;;;;;;;;5021560;28;20217;-82
2023/12/15 02:22:27;;;;;;;45.40;34.97;;;;;;;;;;5021189;28;20201;-84
2023/12/15 02:24:54;;;;;;;41.35;33.60;;;;;;;;;;5011337;28;20218;-83
2023/12/15 02:27:21;;;;;;;43.60;35.35;;;;;;;;;;5001682;28;20222;-83
2023/12/15 02:29:48;;;;;;;39.95;33.28;;;;;;;;;;5005038;28;20202;-84
2023/12/15 02:32:15;;;;;;;47.25;35.80;;;;;;;;;;5021341;28;20280;-82
2023/12/15 02:34:42;;;;;;;43.47;34.70;;;;;;;;;;5021579;28;20638;-84
2023/12/15 02:37:09;;;;;;;43.38;33.60;;;;;;;;;;5021040;28;20229;-83
2023/12/15 02:39:39;;;;;;;43.83;35.08;;;;;;;;;;5021131;28;20209;-82
2023/12/15 02:42:06;;;;;;;41.00;34.60;;;;;;;;;;5020300;28;20213;-84
2023/12/15 02:44:33;;;;;;;39.95;34.78;;;;;;;;;;5021356;28;20295;-82
2023/12/15 02:47:00;;;;;;;45.70;37.87;;;;;;;;;;5021774;28;20280;-83
2023/12/15 02:49:27;;;;;;;43.00;35.33;;;;;;;;;;5003094;28;20436;-82
2023/12/15 02:51:54;;;;;;;43.13;35.17;;;;;;;;;;5000626;28;20253;-83
2023/12/15 02:54:21;;;;;;;35.90;31.95;;;;;;;;;;5001053;28;20210;-84
2023/12/15 02:56:49;;;;;;;40.13;34.73;;;;;;;;;;5001144;28;20287;-82
2023/12/15 02:59:16;;;;;;;42.90;34.88;;;;;;;;;;5001409;28;20453;-84
2023/12/15 03:01:43;;;;;;;45.55;35.63;;;;;;;;;;5015712;28;20263;-83
2023/12/15 03:04:10;;;;;;;38.45;33.33;;;;;;;;;;5020612;28;20265;-83
2023/12/15 03:06:37;;;;;;;39.08;34.95;;;;;;;;;;5020787;28;20221;-84
2023/12/15 03:09:04;;;;;;;43.90;35.15;;;;;;;;;;5019797;28;20601;-84
2023/12/15 03:11:31;;;;;;;40.00;33.70;;;;;;;;;;5020511;28;20272;-82
2023/12/15 03:14:00;;;;;;;38.47;33.88;;;;;;;;;;5020293;28;20213;-83
2023/12/15 03:16:27;;;;;;;45.40;33.55;;;;;;;;;;5020488;28;20217;-84
2023/12/15 03:18:53;;;;;;;43.38;34.58;;;;;;;;;;5020314;28;20209;-83
2023/12/15 03:21:20;;;;;;;41.03;35.38;;;;;;;;;;5019428;28;20669;-83
2023/12/15 03:23:47;;;;;;;38.13;32.38;;;;;;;;;;5019832;28;20299;-83
2023/12/15 03:26:14;;;;;;;41.08;33.97;;;;;;;;;;5001174;28;20229;-84
2023/12/15 03:28:41;;;;;;;37.75;33.55;;;;;;;;;;5011434;28;20251;-83
2023/12/15 03:31:10;;;;;;;48.93;35.10;;;;;;;;;;5009767;28;20252;-82
2023/12/15 03:33:37;;;;;;;32.85;29.27;;;;;;;;;;5000589;28;20472;-83
2023/12/15 03:36:05;;;;;;;41.67;33.63;;;;;;;;;;5010270;28;20233;-83
2023/12/15 03:38:32;;;;;;;41.55;36.47;;;;;;;;;;5018085;28;20206;-82
2023/12/15 03:40:59;;;;;;;43.38;33.08;;;;;;;;;;5019845;28;20214;-84
2023/12/15 03:43:26;;;;;;;47.77;36.27;;;;;;;;;;5019906;28;21000;-84
2023/12/15 03:45:53;;;;;;;43.15;34.90;;;;;;;;;;5019901;28;20475;-82
2023/12/15 03:48:21;;;;;;;41.10;34.33;;;;;;;;;;5019779;28;20205;-84
2023/12/15 03:50:48;;;;;;;47.72;38.58;;;;;;;;;;5002144;28;20465;-84
2023/12/15 03:53:15;;;;;;;44.00;36.75;;;;;;;;;;5000597;28;20264;-82
2023/12/15 03:55:42;;;;;;;40.80;33.50;;;;;;;;;;4999843;28;20213;-83
2023/12/15 03:58:09;;;;;;;50.33;37.03;;;;;;;;;;5008261;28;20210;-83
2023/12/15 04:00:36;;;;;;;43.13;35.90;;;;;;;;;;5016317;28;20221;-83
2023/12/15 04:03:04;;;;;;;44.42;35.15;;;;;;;;;;5019906;28;20236;-83
2023/12/15 04:05:32;;;;;;;43.22;36.58;;;;;;;;;;5019800;28;20581;-83
2023/12/15 04:07:59;;;;;;;48.35;40.38;;;;;;;;;;5019905;28;20202;-82
2023/12/15 04:10:26;;;;;;;71.75;50.85;;;;;;;;;;5019549;28;20209;-84
2023/12/15 04:12:53;;;;;;;52.75;39.17;;;;;;;;;;5000595;28;20210;-83
2023/12/15 04:15:20;;;;;;;52.13;41.80;;;;;;;;;;5000677;28;20206;-82
2023/12/15 04:17:47;;;;;;;59.97;48.08;;;;;;;;;;4999560;28;20230;-83
2023/12/15 04:20:14;;;;;;;53.40;42.13;;;;;;;;;;4999257;28;20206;-84
2023/12/15 04:22:43;;;;;;;61.08;42.90;;;;;;;;;;5016241;28;20215;-84
2023/12/15 04:25:11;;;;;;;53.35;39.83;;;;;;;;;;5019005;28;20287;-84
2023/12/15 04:27:38;;;;;;;75.07;61.55;;;;;;;;;;5019745;28;20360;-84
2023/12/15 04:30:06;;;;;;;59.30;40.90;;;;;;;;;;5018082;28;20237;-82
2023/12/15 04:32:33;;;;;;;60.08;39.70;;;;;;;;;;5015539;28;20240;-83
2023/12/15 04:35:00;;;;;;;50.42;41.03;;;;;;;;;;5019936;28;20224;-83
2023/12/15 04:37:27;;;;;;;47.70;39.00;;;;;;;;;;5018916;28;20313;-82
2023/12/15 04:39:55;;;;;;;40.67;35.77;;;;;;;;;;5014260;28;20206;-84
2023/12/15 04:42:22;;;;;;;49.15;40.30;;;;;;;;;;5002614;28;21019;-83
2023/12/15 04:44:49;;;;;;;48.87;39.67;;;;;;;;;;5003527;28;20229;-85
2023/12/15 04:47:16;;;;;;;59.17;42.28;;;;;;;;;;5017365;28;20495;-84
2023/12/15 04:49:43;;;;;;;49.67;38.30;;;;;;;;;;5020860;28;20205;-84
2023/12/15 04:52:10;;;;;;;50.77;39.77;;;;;;;;;;5017347;28;20202;-84
2023/12/15 04:54:37;;;;;;;49.60;39.83;;;;;;;;;;5023013;28;21094;-82
2023/12/15 04:57:06;;;;;;;52.28;39.60;;;;;;;;;;5014756;28;20772;-83
2023/12/15 04:59:39;;;;;;;62.13;40.35;;;;;;;;;;5016959;28;20255;-81
2023/12/15 05:02:06;;;;;;;57.63;43.23;;;;;;;;;;5022508;28;20216;-84
2023/12/15 05:04:33;;;;;;;61.63;42.80;;;;;;;;;;5022696;28;20484;-83
2023/12/15 05:07:01;;;;;;;65.72;45.10;;;;;;;;;;5022992;28;20252;-83
2023/12/15 05:09:28;;;;;;;63.80;44.63;;;;;;;;;;5022122;28;20205;-82
2023/12/15 05:11:55;;;;;;;57.67;41.55;;;;;;;;;;5021870;28;20460;-82
2023/12/15 05:14:24;;;;;;;64.97;45.97;;;;;;;;;;5023252;28;20741;-82
2023/12/15 05:16:51;;;;;;;70.87;44.80;;;;;;;;;;5022997;28;20848;-82
2023/12/15 05:19:18;;;;;;;58.73;40.73;;;;;;;;;;5023481;28;20514;-82
2023/12/15 05:21:45;;;;;;;65.10;43.83;;;;;;;;;;5022384;28;20452;-83
2023/12/15 05:24:12;;;;;;;64.97;45.10;;;;;;;;;;5013298;28;20522;-84
2023/12/15 05:26:40;;;;;;;59.23;43.47;;;;;;;;;;5003120;28;20477;-82
2023/12/15 05:29:07;;;;;;;71.68;46.65;;;;;;;;;;5002843;28;20412;-85
2023/12/15 05:31:35;;;;;;;62.10;43.40;;;;;;;;;;5002137;28;20202;-83
2023/12/15 05:34:02;;;;;;;67.20;43.47;;;;;;;;;;5011465;28;20222;-84
2023/12/15 05:36:29;;;;;;;64.10;46.70;;;;;;;;;;5003835;28;20486;-84
2023/12/15 05:38:56;;;;;;;62.10;43.93;;;;;;;;;;5002953;28;20838;-83
2023/12/15 05:41:23;;;;;;;73.53;46.90;;;;;;;;;;5001102;28;20472;-82
2023/12/15 05:43:50;;;;;;;68.75;43.75;;;;;;;;;;5002745;28;20206;-84
2023/12/15 05:46:19;;;;;;;63.10;45.75;;;;;;;;;;5012781;28;20230;-84
2023/12/15 05:48:47;;;;;;;58.05;42.83;;;;;;;;;;5018814;28;20566;-82
2023/12/15 05:51:15;;;;;;;64.50;46.53;;;;;;;;;;5013205;28;20202;-83
2023/12/15 05:53:42;;;;;;;70.38;45.35;;;;;;;;;;5002089;28;20262;-83
2023/12/15 05:56:09;;;;;;;62.85;46.30;;;;;;;;;;5010891;28;20280;-83
2023/12/15 05:58:36;;;;;;;55.83;42.43;;;;;;;;;;5002810;28;20621;-83
2023/12/15 06:01:03;;;;;;;59.43;44.60;;;;;;;;;;5006459;28;20460;-83
2023/12/15 06:03:30;;;;;;;69.97;44.60;;;;;;;;;;5022478;28;20491;-82
2023/12/15 06:05:59;;;;;;;64.68;45.00;;;;;;;;;;5017905;28;20504;-84
2023/12/15 06:08:26;;;;;;;70.80;46.50;;;;;;;;;;5004053;28;20210;-83
2023/12/15 06:10:53;;;;;;;61.77;45.73;;;;;;;;;;5015408;28;20453;-84
2023/12/15 06:13:19;;;;;;;59.20;43.60;;;;;;;;;;5022051;28;20456;-82
2023/12/15 06:15:46;;;;;;;59.60;43.40;;;;;;;;;;5006298;28;20457;-82
2023/12/15 06:18:13;;;;;;;59.43;46.30;;;;;;;;;;5002560;28;20206;-82
2023/12/15 06:20:40;;;;;;;62.33;46.20;;;;;;;;;;5001257;28;20432;-84
2023/12/15 06:23:09;;;;;;;70.90;46.03;;;;;;;;;;5001418;28;20258;-82
2023/12/15 06:25:36;;;;;;;65.03;46.63;;;;;;;;;;5002650;28;20604;-84
2023/12/15 06:28:03;;;;;;;63.35;43.67;;;;;;;;;;5016536;28;20550;-83
2023/12/15 06:30:32;;;;;;;70.30;45.92;;;;;;;;;;5021103;28;20201;-84
2023/12/15 06:32:59;;;;;;;63.10;47.28;;;;;;;;;;5009467;28;20221;-84
2023/12/15 06:35:26;;;;;;;62.90;46.20;;;;;;;;;;5001605;28;20234;-84
2023/12/15 06:37:53;;;;;;;59.90;46.17;;;;;;;;;;5017332;28;20465;-84
2023/12/15 06:40:21;;;;;;;57.10;45.20;;;;;;;;;;5002266;28;20249;-83
2023/12/15 06:42:48;;;;;;;57.42;44.05;;;;;;;;;;5000907;28;20473;-85
2023/12/15 06:45:15;;;;;;;57.10;44.13;;;;;;;;;;5001137;28;20618;-84
2023/12/15 06:47:42;;;;;;;60.00;45.22;;;;;;;;;;5001926;28;20469;-82
2023/12/15 06:50:10;;;;;;;68.63;44.50;;;;;;;;;;5001370;28;20242;-84
2023/12/15 06:52:37;;;;;;;59.15;42.10;;;;;;;;;;5000083;28;20198;-82
2023/12/15 06:55:05;;;;;;;58.00;42.90;;;;;;;;;;5001272;28;20206;-82
2023/12/15 06:57:33;;;;;;;61.53;42.80;;;;;;;;;;5010888;28;20536;-82
2023/12/15 07:00:00;;;;;;;51.83;42.10;;;;;;;;;;5004438;28;20534;-84
2023/12/15 07:02:27;;;;;;;39.30;33.20;;;;;;;;;;5013074;28;20214;-84
2023/12/15 07:04:54;;;;;;;60.90;41.85;;;;;;;;;;4999447;28;20516;-82
2023/12/15 07:07:21;;;;;;;65.10;43.85;;;;;;;;;;5000942;28;20309;-84
2023/12/15 07:09:49;;;;;;;53.88;43.10;;;;;;;;;;5002087;28;20214;-84
2023/12/15 07:12:16;;;;;;;66.32;46.40;;;;;;;;;;5018978;28;20248;-82
2023/12/15 07:14:44;;;;;;;60.55;45.88;;;;;;;;;;5019762;28;20205;-82
2023/12/15 07:17:11;;;;;;;66.73;46.80;;;;;;;;;;5006578;28;20245;-82
2023/12/15 07:19:38;;;;;;;57.73;44.73;;;;;;;;;;5000048;28;20504;-83
2023/12/15 07:22:05;;;;;;;71.30;49.40;;;;;;;;;;5018629;28;20479;-84
2023/12/15 07:24:34;;;;;;;82.35;48.15;;;;;;;;;;5020549;28;20441;-83
2023/12/15 07:27:01;;;;;;;72.78;46.95;;;;;;;;;;5008584;28;20719;-83
2023/12/15 07:29:28;;;;;;;77.45;46.97;;;;;;;;;;5001046;28;20271;-82
2023/12/15 07:31:56;;;;;;;71.53;48.38;;;;;;;;;;5015992;28;20244;-82
2023/12/15 07:34:23;;;;;;;66.85;43.78;;;;;;;;;;5016251;28;20229;-84
2023/12/15 07:36:50;;;;;;;55.40;40.65;;;;;;;;;;5002861;28;20226;-82
2023/12/15 07:39:21;;;;;;;72.43;48.47;;;;;;;;;;5000881;28;20214;-83
2023/12/15 07:41:48;;;;;;;75.80;47.13;;;;;;;;;;5000132;28;20422;-82
2023/12/15 07:44:15;;;;;;;84.63;47.60;;;;;;;;;;4999744;28;20298;-82
2023/12/15 07:46:42;;;;;;;84.47;50.33;;;;;;;;;;5013671;28;20233;-83
2023/12/15 07:49:10;;;;;;;88.68;49.92;;;;;;;;;;5020246;28;20613;-83
2023/12/15 07:51:37;;;;;;;94.53;51.38;;;;;;;;;;5003918;28;20202;-82
2023/12/15 07:54:04;;;;;;;83.10;50.03;;;;;;;;;;5017975;28;20208;-85
2023/12/15 07:56:31;;;;;;;94.82;53.08;;;;;;;;;;5016419;28;20284;-82
2023/12/15 07:58:58;;;;;;;68.80;50.30;;;;;;;;;;5019107;28;20197;-84
2023/12/15 08:01:26;;;;;;;100.43;51.63;;;;;;;;;;5018534;28;21023;-84
2023/12/15 08:03:53;;;;;;;81.45;50.78;;;;;;;;;;5018579;28;20221;-84
2023/12/15 08:06:21;;;;;;;95.77;50.10;;;;;;;;;;5018456;28;20233;-84
2023/12/15 08:08:51;;;;;;;122.65;53.42;;;;;;;;;;4999380;28;20453;-83
2023/12/15 08:11:18;;;;;;;86.63;52.17;;;;;;;;;;4999132;28;20297;-82
2023/12/15 08:13:46;;;;;;;120.35;57.40;;;;;;;;;;4999017;28;20214;-84
2023/12/15 08:16:13;;;;;;;109.10;53.75;;;;;;;;;;4998648;28;20681;-83
2023/12/15 08:18:41;;;;;;;117.53;55.67;;;;;;;;;;5012614;28;20280;-85
2023/12/15 08:21:08;;;;;;;90.78;53.78;;;;;;;;;;5002923;28;20542;-84
2023/12/15 08:23:36;;;;;;;89.40;53.00;;;;;;;;;;5017034;28;20748;-84
2023/12/15 08:26:03;;;;;;;121.50;55.73;;;;;;;;;;5004086;28;20238;-83
2023/12/15 08:28:30;;;;;;;81.13;50.25;;;;;;;;;;4999323;28;20483;-83
2023/12/15 08:30:58;;;;;;;106.93;54.38;;;;;;;;;;4997497;28;20210;-83
2023/12/15 08:33:27;;;;;;;99.75;50.78;;;;;;;;;;4998612;28;20241;-83
2023/12/15 08:35:54;;;;;;;95.57;50.13;;;;;;;;;;4998546;28;20698;-85
2023/12/15 08:38:21;;;;;;;80.78;48.97;;;;;;;;;;4998900;28;20202;-85
2023/12/15 08:40:49;;;;;;;122.07;52.93;;;;;;;;;;5009168;28;20237;-83
2023/12/15 08:43:16;;;;;;;92.97;48.80;;;;;;;;;;5018724;28;20452;-83
2023/12/15 08:45:43;;;;;;;99.07;49.47;;;;;;;;;;5020460;28;20542;-83
2023/12/15 08:48:10;;;;;;;107.65;50.42;;;;;;;;;;5019975;28;20456;-83
2023/12/15 08:50:37;;;;;;;83.45;46.30;;;;;;;;;;4999909;28;20284;-84
2023/12/15 08:53:04;;;;;;;94.70;52.40;;;;;;;;;;4998248;28;20206;-79
2023/12/15 08:55:31;;;;;;;83.60;48.53;;;;;;;;;;5014664;28;20507;-81
2023/12/15 08:57:59;;;;;;;102.30;50.67;;;;;;;;;;4995400;28;20241;-80
2023/12/15 09:00:27;;;;;;;109.03;51.47;;;;;;;;;;4994664;28;20683;-80
2023/12/15 09:02:54;;;;;;;97.82;49.30;;;;;;;;;;4994430;28;20962;-80
2023/12/15 09:05:23;;;;;;;121.15;53.83;;;;;;;;;;4994466;28;20249;-80
2023/12/15 09:07:50;;;;;;;124.30;52.38;;;;;;;;;;5003034;28;20229;-80
2023/12/15 09:10:17;;;;;;;113.93;52.28;;;;;;;;;;5011721;28;20918;-79
2023/12/15 09:12:45;;;;;;;111.63;50.13;;;;;;;;;;5004176;28;20260;-79
2023/12/15 09:15:13;;;;;;;64.93;42.00;;;;;;;;;;5010200;28;20460;-80
2023/12/15 09:17:40;;;;;;;66.38;39.50;;;;;;;;;;5014619;28;20551;-80
2023/12/15 09:20:08;;;;;;;102.72;51.70;;;;;;;;;;5014713;28;20283;-81
2023/12/15 09:22:35;;;;;;;94.57;51.07;;;;;;;;;;5014656;28;20218;-80
2023/12/15 09:25:02;;;;;;;100.50;51.25;;;;;;;;;;5013815;28;20944;-79
2023/12/15 09:27:29;;;;;;;91.00;51.90;;;;;;;;;;5003531;28;20222;-78
2023/12/15 09:29:57;;;;;;;121.53;51.10;;;;;;;;;;4996514;28;20265;-78
2023/12/15 09:32:25;;;;;;;85.90;49.55;;;;;;;;;;4995736;28;20213;-78
2023/12/15 09:34:52;;;;;;;109.38;54.72;;;;;;;;;;4995925;28;20205;-78
2023/12/15 09:37:19;;;;;;;138.50;58.17;;;;;;;;;;5007217;28;20219;-78
2023/12/15 09:39:46;;;;;;;79.93;46.60;;;;;;;;;;4996398;28;20207;-79
2023/12/15 09:42:13;;;;;;;74.23;46.40;;;;;;;;;;4996624;28;20436;-80
2023/12/15 09:44:40;;;;;;;102.63;54.50;;;;;;;;;;5000252;28;20508;-81
2023/12/15 09:47:07;;;;;;;77.47;49.40;;;;;;;;;;5002674;28;20500;-80
2023/12/15 09:49:36;;;;;;;87.60;53.47;;;;;;;;;;5017841;28;20440;-79
2023/12/15 09:52:04;;;;;;;89.03;51.63;;;;;;;;;;5016838;28;20205;-81
2023/12/15 09:54:34;;;;;;;87.03;51.23;;;;;;;;;;5017391;28;21010;-81
2023/12/15 09:57:01;;;;;;;107.40;53.87;;;;;;;;;;5014490;28;21289;-80
2023/12/15 09:59:28;;;;;;;95.63;51.15;;;;;;;;;;5020752;28;20423;-83
2023/12/15 10:01:55;;;;;;;98.55;50.78;;;;;;;;;;5014675;28;20214;-81
2023/12/15 10:04:22;;;;;;;102.97;53.95;;;;;;;;;;5003016;28;20268;-81
2023/12/15 10:06:50;;;;;;;149.15;56.78;;;;;;;;;;5012378;28;20285;-82
2023/12/15 10:09:17;;;;;;;136.67;55.10;;;;;;;;;;5018182;28;20260;-83
2023/12/15 10:11:46;;;;;;;126.17;52.53;;;;;;;;;;5014212;28;20464;-84
2023/12/15 10:14:14;;;;;;;91.03;52.03;;;;;;;;;;5022640;28;20427;-82
2023/12/15 10:16:41;;;;;;;152.65;58.60;;;;;;;;;;5024734;28;20692;-84
2023/12/15 10:19:09;;;;;;;124.43;57.40;;;;;;;;;;5020300;28;20214;-79
2023/12/15 10:21:37;;;;;;;114.57;57.90;;;;;;;;;;5017604;28;20210;-85
2023/12/15 10:24:18;;;;;;;131.27;60.67;;;;;;;;;;5023341;28;20456;-85
2023/12/15 10:26:46;;;;;;;112.65;56.63;;;;;;;;;;5019151;28;20496;-86
2023/12/15 10:29:12;;;;;;;114.68;58.17;;;;;;;;;;5022507;28;20205;-82
2023/12/15 10:31:39;;;;;;;104.90;57.93;;;;;;;;;;5019153;28;20197;-84
2023/12/15 10:34:07;;;;;;;105.93;55.50;;;;;;;;;;5008796;28;20447;-84
2023/12/15 10:36:35;;;;;;;112.67;59.83;;;;;;;;;;5000440;28;20231;-82
2023/12/15 10:39:03;;;;;;;75.43;52.22;;;;;;;;;;5000670;28;20432;-82
2023/12/15 10:41:31;;;;;;;118.30;58.17;;;;;;;;;;5000055;28;20236;-81
2023/12/15 10:43:58;;;;;;;99.57;56.63;;;;;;;;;;5000748;28;20468;-83
2023/12/15 10:46:26;;;;;;;105.23;60.00;;;;;;;;;;5000566;28;20284;-83
2023/12/15 10:48:54;;;;;;;87.73;56.40;;;;;;;;;;5000257;28;20449;-82
2023/12/15 10:51:24;;;;;;;89.50;57.80;;;;;;;;;;4999533;28;20433;-83
2023/12/15 10:53:53;;;;;;;77.30;53.07;;;;;;;;;;5000589;28;20529;-83
2023/12/15 10:56:21;;;;;;;98.43;60.23;;;;;;;;;;4999873;28;20470;-82
2023/12/15 10:58:50;;;;;;;93.63;60.60;;;;;;;;;;4999691;28;20533;-84
2023/12/15 11:01:17;;;;;;;94.88;60.92;;;;;;;;;;4999270;28;20428;-82
2023/12/15 11:03:44;;;;;;;103.70;60.50;;;;;;;;;;5000139;28;20216;-84
2023/12/15 11:06:12;;;;;;;97.35;57.63;;;;;;;;;;4999581;28;20807;-83
2023/12/15 11:08:39;;;;;;;97.50;59.33;;;;;;;;;;5000677;28;20210;-83
2023/12/15 11:11:07;;;;;;;90.77;59.10;;;;;;;;;;4999621;28;20272;-82
2023/12/15 11:13:50;;;;;;;85.90;56.13;;;;;;;;;;5000072;28;20445;-83
2023/12/15 11:16:20;;;;;;;85.77;54.20;;;;;;;;;;5000065;28;20852;-83
2023/12/15 11:18:47;;;;;;;76.87;54.87;;;;;;;;;;4999781;28;20464;-82
2023/12/15 11:21:15;;;;;;;73.73;51.50;;;;;;;;;;4999976;28;20477;-84
2023/12/15 11:23:53;;;;;;;80.80;53.07;;;;;;;;;;5001300;28;20408;-83
2023/12/15 11:26:23;;;;;;;66.80;51.73;;;;;;;;;;5000323;28;20523;-84
2023/12/15 11:28:50;;;;;;;74.80;53.00;;;;;;;;;;5000005;28;20504;-81
2023/12/15 11:31:24;;;;;;;87.13;56.87;;;;;;;;;;4999448;28;20481;-83
2023/12/15 11:33:51;;;;;;;69.68;50.35;;;;;;;;;;5000066;28;20449;-83
2023/12/15 11:36:18;;;;;;;75.07;55.40;;;;;;;;;;5004976;28;20230;-83
2023/12/15 11:38:49;;;;;;;88.45;58.75;;;;;;;;;;5008783;28;20488;-82
2023/12/15 11:41:18;;;;;;;79.63;56.73;;;;;;;;;;5018082;28;20224;-82
2023/12/15 11:43:45;;;;;;;72.03;55.97;;;;;;;;;;5018080;28;20459;-81
2023/12/15 11:46:12;;;;;;;60.53;51.87;;;;;;;;;;5016541;28;20952;-81
2023/12/15 11:48:41;;;;;;;86.90;56.10;;;;;;;;;;5015160;28;20464;-81
2023/12/15 11:51:09;;;;;;;82.07;53.87;;;;;;;;;;5016299;28;20452;-80
2023/12/15 11:53:39;;;;;;;68.10;54.80;;;;;;;;;;5000980;28;20453;-81
2023/12/15 11:56:07;;;;;;;68.27;54.13;;;;;;;;;;4998530;28;20553;-80
2023/12/15 11:58:35;;;;;;;95.63;56.77;;;;;;;;;;4997916;28;20515;-80
2023/12/15 12:01:03;;;;;;;75.30;52.10;;;;;;;;;;5005563;28;20444;-80
2023/12/15 12:03:31;;;;;;;78.33;55.30;;;;;;;;;;5017151;28;20445;-80
2023/12/15 12:05:59;;;;;;;60.87;49.20;;;;;;;;;;5013708;28;20480;-81
2023/12/15 12:08:26;;;;;;;62.33;47.83;;;;;;;;;;5012939;28;20443;-79
2023/12/15 12:10:55;;;;;;;78.97;54.17;;;;;;;;;;5035942;28;20455;-81
2023/12/15 12:13:22;;;;;;;84.03;57.67;;;;;;;;;;5037398;28;20448;-81
2023/12/15 12:15:50;;;;;;;78.00;50.60;;;;;;;;;;5036445;28;20479;-80
2023/12/15 12:18:17;;;;;;;77.37;51.90;;;;;;;;;;5026197;28;20491;-81
2023/12/15 12:20:44;;;;;;;87.87;55.37;;;;;;;;;;5016889;28;20506;-80
2023/12/15 12:23:13;;;;;;;86.43;54.43;;;;;;;;;;5017371;28;20458;-80
2023/12/15 12:25:44;;;;;;;75.87;51.17;;;;;;;;;;5003522;28;20843;-85
2023/12/15 12:28:11;;;;;;;87.03;54.87;;;;;;;;;;4999682;28;20513;-86
2023/12/15 12:30:38;;;;;;;85.17;58.10;;;;;;;;;;5012846;28;20466;-80
2023/12/15 12:33:05;;;;;;;84.43;56.63;;;;;;;;;;5011484;28;20457;-80
2023/12/15 12:35:32;;;;;;;93.53;52.80;;;;;;;;;;5015007;28;20506;-81
2023/12/15 12:37:59;;;;;;;82.80;52.30;;;;;;;;;;5001841;28;20453;-79
2023/12/15 12:40:28;;;;;;;50.93;42.00;;;;;;;;;;5004427;28;20456;-82
2023/12/15 12:42:58;;;;;;;80.17;52.17;;;;;;;;;;5016243;28;20416;-80
2023/12/15 12:45:25;;;;;;;74.37;51.97;;;;;;;;;;5016499;28;20504;-80
2023/12/15 12:47:52;;;;;;;93.70;52.93;;;;;;;;;;5016595;28;20466;-80
2023/12/15 12:50:19;;;;;;;84.60;57.70;;;;;;;;;;5014623;28;20484;-87
2023/12/15 12:52:46;;;;;;;80.37;53.40;;;;;;;;;;4999716;28;20504;-86
2023/12/15 12:55:13;;;;;;;86.90;54.43;;;;;;;;;;4998010;28;20543;-83
2023/12/15 12:57:41;;;;;;;88.83;55.80;;;;;;;;;;5005173;28;20476;-81
2023/12/15 13:00:09;;;;;;;75.77;53.30;;;;;;;;;;5016402;28;20464;-81
2023/12/15 13:02:37;;;;;;;71.90;54.50;;;;;;;;;;5016894;28;20829;-82
2023/12/15 13:05:05;;;;;;;74.50;52.30;;;;;;;;;;5003401;28;20873;-80
2023/12/15 13:07:35;;;;;;;75.20;51.27;;;;;;;;;;5008886;28;20513;-81
2023/12/15 13:10:03;;;;;;;70.17;49.20;;;;;;;;;;5011247;28;20460;-83
2023/12/15 13:12:30;;;;;;;91.03;51.97;;;;;;;;;;4999747;28;20507;-82
2023/12/15 13:14:58;;;;;;;77.37;52.07;;;;;;;;;;5000160;28;20449;-83
2023/12/15 13:17:26;;;;;;;78.47;54.27;;;;;;;;;;5000463;28;20533;-81
2023/12/15 13:19:53;;;;;;;51.93;40.83;;;;;;;;;;5003650;28;20479;-87
2023/12/15 13:22:26;;;;;;;65.53;51.83;;;;;;;;;;5019456;28;20414;-88
2023/12/15 13:24:59;;;;;;;79.33;53.43;;;;;;;;;;5019421;28;20441;-87
2023/12/15 13:27:26;;;;;;;77.93;53.10;;;;;;;;;;5019768;28;20868;-87
2023/12/15 13:29:53;;;;;;;70.23;49.10;;;;;;;;;;5019021;28;20498;-85
2023/12/15 13:32:22;;;;;;;73.13;48.67;;;;;;;;;;5021295;28;20468;-83
2023/12/15 13:34:49;;;;;;;68.03;50.70;;;;;;;;;;5012631;28;20764;-83
2023/12/15 13:37:16;;;;;;;72.17;51.10;;;;;;;;;;5004494;28;22708;-83
2023/12/15 13:39:43;;;;;;;77.37;50.50;;;;;;;;;;5021993;28;20547;-80
2023/12/15 13:42:10;;;;;;;80.20;51.90;;;;;;;;;;5013727;28;20455;-83
2023/12/15 13:44:37;;;;;;;73.03;51.80;;;;;;;;;;5020989;28;20448;-79
2023/12/15 13:47:04;;;;;;;70.37;47.93;;;;;;;;;;5002224;28;20551;-82
2023/12/15 13:49:32;;;;;;;61.67;44.70;;;;;;;;;;5001842;28;20449;-86
2023/12/15 13:51:59;;;;;;;71.27;50.63;;;;;;;;;;5002478;28;20464;-80
2023/12/15 13:54:26;;;;;;;75.53;51.60;;;;;;;;;;5011587;28;20449;-80
2023/12/15 13:56:56;;;;;;;69.60;51.83;;;;;;;;;;5017568;28;20486;-81
2023/12/15 13:59:23;;;;;;;74.83;49.80;;;;;;;;;;5018506;28;20449;-80
2023/12/15 14:01:50;;;;;;;71.77;49.40;;;;;;;;;;5018913;28;20814;-87
2023/12/15 14:04:17;;;;;;;72.10;50.97;;;;;;;;;;5022295;28;20444;-87
2023/12/15 14:06:49;;;;;;;82.47;53.73;;;;;;;;;;5021924;28;20476;-84
2023/12/15 14:09:16;;;;;;;60.93;48.07;;;;;;;;;;5016917;28;20440;-81
2023/12/15 14:11:43;;;;;;;53.70;44.93;;;;;;;;;;5017662;28;20856;-81
2023/12/15 14:14:10;;;;;;;71.77;50.23;;;;;;;;;;5018630;28;20436;-88
2023/12/15 14:16:37;;;;;;;80.27;52.60;;;;;;;;;;5018155;28;20485;-88